Time;durP1;ratioP1;P1;durP2;ratioP2;P2;SDS_P1;SDS_P2;PMS_P1;PMS_P2;Temp;Humidity;BMP_temperature;BMP_pressure;BME280_temperature;BME280_humidity;BME280_pressure;Samples;Min_cycle;Max_cycle;Signal;HPM_P1;HPM_P2
2022/02/17 00:00:09;;;;;;;26.60;20.88;;;;;;;4.17;80.80;96726.37;1736288;82;21388;-68
2022/02/17 00:02:38;;;;;;;28.70;20.32;;;;;;;4.16;80.65;96733.52;1736182;82;20986;-63
2022/02/17 00:05:05;;;;;;;27.75;19.15;;;;;;;4.13;80.54;96728.24;1736216;82;22258;-64
2022/02/17 00:07:33;;;;;;;27.75;19.15;;;;;;;4.14;80.49;96721.09;1736141;82;21573;-64
2022/02/17 00:10:00;;;;;;;30.70;19.82;;;;;;;4.13;80.49;96727.45;1736315;82;20946;-67
2022/02/17 00:12:26;;;;;;;26.82;18.70;;;;;;;4.11;80.49;96729.06;1736491;82;21494;-67
2022/02/17 00:14:53;;;;;;;26.97;20.08;;;;;;;4.11;80.43;96727.73;1736318;82;20851;-62
2022/02/17 00:17:22;;;;;;;29.48;20.08;;;;;;;4.09;80.45;96719.28;1736509;82;21411;-63
2022/02/17 00:19:48;;;;;;;28.20;19.87;;;;;;;4.07;80.44;96722.72;1736254;82;20915;-66
2022/02/17 00:22:16;;;;;;;28.80;20.17;;;;;;;4.05;80.47;96714.27;1736289;82;20852;-63
2022/02/17 00:24:42;;;;;;;27.80;20.17;;;;;;;4.02;80.50;96702.13;1736294;82;20977;-62
2022/02/17 00:27:09;;;;;;;28.20;21.05;;;;;;;3.98;80.60;96699.22;1736236;82;21480;-67
2022/02/17 00:29:36;;;;;;;25.90;19.95;;;;;;;3.95;80.76;96695.03;1736332;82;21082;-65
2022/02/17 00:32:04;;;;;;;28.38;21.15;;;;;;;3.92;80.88;96695.58;1736270;82;20908;-66
2022/02/17 00:34:31;;;;;;;31.85;23.00;;;;;;;3.90;80.94;96683.16;1736533;82;21442;-67
2022/02/17 00:36:58;;;;;;;31.37;21.70;;;;;;;3.86;81.06;96684.23;1736370;82;20943;-67
2022/02/17 00:39:24;;;;;;;31.70;21.57;;;;;;;3.82;81.21;96672.62;1736336;82;20915;-66
2022/02/17 00:41:51;;;;;;;30.30;21.12;;;;;;;3.79;81.27;96665.22;1736300;82;21077;-67
2022/02/17 00:44:18;;;;;;;29.90;20.92;;;;;;;3.76;81.39;96661.83;1736340;82;21550;-66
2022/02/17 00:46:44;;;;;;;34.10;21.48;;;;;;;3.75;81.51;96653.61;1736315;82;20903;-65
2022/02/17 00:49:11;;;;;;;30.62;21.48;;;;;;;3.74;81.55;96650.73;1736296;82;20931;-68
2022/02/17 00:51:38;;;;;;;28.47;21.17;;;;;;;3.73;81.59;96641.19;1736496;82;20955;-62
2022/02/17 00:54:05;;;;;;;28.65;20.92;;;;;;;3.70;81.65;96628.50;1736310;82;21114;-63
2022/02/17 00:56:35;;;;;;;28.50;21.85;;;;;;;3.67;81.71;96630.40;1736423;82;21343;-64
2022/02/17 00:59:02;;;;;;;26.75;19.70;;;;;;;3.66;81.73;96622.19;1736472;82;20991;-68
2022/02/17 01:01:29;;;;;;;30.12;20.25;;;;;;;3.68;81.74;96622.69;1736178;82;20919;-66
2022/02/17 01:03:56;;;;;;;28.55;21.15;;;;;;;3.69;81.77;96615.02;1736215;82;21315;-65
2022/02/17 01:06:23;;;;;;;31.12;22.85;;;;;;;3.70;81.79;96611.28;1736494;82;21119;-66
2022/02/17 01:08:51;;;;;;;27.75;19.98;;;;;;;3.73;81.74;96605.44;1736064;82;20923;-67
2022/02/17 01:11:19;;;;;;;25.05;19.15;;;;;;;3.76;81.58;96607.53;1736016;82;20924;-64
2022/02/17 01:13:46;;;;;;;26.87;20.77;;;;;;;3.74;81.48;96600.41;1736171;82;20978;-67
2022/02/17 01:16:13;;;;;;;26.17;20.52;;;;;;;3.72;81.46;96588.52;1736183;82;20931;-66
2022/02/17 01:18:40;;;;;;;29.12;21.20;;;;;;;3.70;81.46;96586.13;1736497;82;21856;-65
2022/02/17 01:21:09;;;;;;;31.75;20.92;;;;;;;3.68;81.46;96575.03;1735870;82;20915;-65
2022/02/17 01:23:35;;;;;;;31.68;23.47;;;;;;;3.69;81.50;96573.97;1736514;82;21483;-65
2022/02/17 01:26:02;;;;;;;36.13;26.75;;;;;;;3.72;81.49;96572.63;1736414;82;20899;-65
2022/02/17 01:28:30;;;;;;;29.92;20.75;;;;;;;3.74;81.45;96563.33;1710136;82;20913;-63
2022/02/17 01:30:57;;;;;;;30.48;21.33;;;;;;;3.75;81.36;96552.97;1736421;82;21181;-64
2022/02/17 01:33:25;;;;;;;25.37;21.10;;;;;;;3.76;81.29;96550.59;1736343;82;20848;-62
2022/02/17 01:35:54;;;;;;;32.20;23.02;;;;;;;3.74;81.19;96534.20;1735858;82;21431;-67
2022/02/17 01:38:21;;;;;;;31.77;21.25;;;;;;;3.75;81.18;96541.06;1736314;82;20963;-67
2022/02/17 01:40:50;;;;;;;27.70;19.65;;;;;;;3.76;81.14;96542.65;1736446;82;20978;-66
2022/02/17 01:43:17;;;;;;;24.98;18.95;;;;;;;3.76;81.03;96536.03;1736243;82;21124;-64
2022/02/17 01:45:44;;;;;;;26.68;18.70;;;;;;;3.77;80.91;96525.67;1736520;82;20875;-64
2022/02/17 01:48:12;;;;;;;21.87;17.12;;;;;;;3.76;80.72;96526.76;1736393;82;20903;-62
2022/02/17 01:50:43;;;;;;;34.05;23.47;;;;;;;3.80;80.64;96524.32;1736647;82;20942;-63
2022/02/17 01:53:11;;;;;;;27.48;19.32;;;;;;;3.81;80.52;96519.29;1736564;82;21422;-63
2022/02/17 01:55:40;;;;;;;23.57;17.98;;;;;;;3.82;80.28;96507.08;1736379;82;21429;-65
2022/02/17 01:58:07;;;;;;;25.00;16.57;;;;;;;3.83;80.09;96495.42;1736342;82;21058;-67
2022/02/17 02:00:34;;;;;;;22.32;16.97;;;;;;;3.87;80.08;96491.66;1736510;82;21398;-64
2022/02/17 02:03:03;;;;;;;25.20;17.25;;;;;;;3.90;79.85;96474.68;1736153;82;20915;-66
2022/02/17 02:05:31;;;;;;;24.57;17.25;;;;;;;3.93;79.67;96471.44;1734284;82;21368;-65
2022/02/17 02:08:00;;;;;;;20.52;15.55;;;;;;;3.94;79.52;96475.68;1735310;82;20934;-63
2022/02/17 02:10:27;;;;;;;24.63;16.77;;;;;;;3.96;79.14;96466.91;1719904;83;20971;-65
2022/02/17 02:12:54;;;;;;;23.22;16.67;;;;;;;3.96;79.13;96458.16;1720119;83;20875;-67
2022/02/17 02:15:28;;;;;;;18.45;14.58;;;;;;;3.95;79.13;96454.75;1718338;83;20894;-63
2022/02/17 02:17:55;;;;;;;18.32;14.05;;;;;;;3.94;79.11;96441.24;1720229;83;20852;-67
2022/02/17 02:20:22;;;;;;;21.60;13.83;;;;;;;3.95;79.12;96441.51;1719944;83;21094;-65
2022/02/17 02:22:52;;;;;;;19.95;14.07;;;;;;;3.98;79.05;96437.50;1719579;83;20928;-63
2022/02/17 02:25:19;;;;;;;23.62;16.32;;;;;;;3.98;78.98;96421.05;1720117;83;20955;-66
2022/02/17 02:27:47;;;;;;;17.55;13.48;;;;;;;4.00;78.85;96418.13;1668666;83;21014;-68
2022/02/17 02:30:15;;;;;;;18.62;13.32;;;;;;;4.00;78.69;96400.34;1719976;82;20888;-64
2022/02/17 02:32:42;;;;;;;17.60;13.53;;;;;;;3.99;78.66;96401.44;1720237;83;21852;-68
2022/02/17 02:35:09;;;;;;;16.48;11.95;;;;;;;3.99;78.54;96398.80;1719951;83;20963;-68
2022/02/17 02:37:36;;;;;;;16.15;12.40;;;;;;;4.00;78.43;96388.42;1720145;83;21364;-64
2022/02/17 02:40:04;;;;;;;20.40;15.20;;;;;;;4.00;78.44;96381.80;1719914;83;20896;-64
2022/02/17 02:42:32;;;;;;;22.25;13.95;;;;;;;3.99;78.42;96372.30;1719952;83;20931;-66
2022/02/17 02:44:59;;;;;;;20.00;14.90;;;;;;;3.98;78.40;96366.73;1720229;83;21391;-65
2022/02/17 02:47:25;;;;;;;19.50;13.85;;;;;;;3.97;78.38;96365.70;1720298;83;20907;-66
2022/02/17 02:49:52;;;;;;;30.97;21.82;;;;;;;3.94;78.37;96355.15;1720106;83;20876;-65
2022/02/17 02:52:19;;;;;;;21.35;14.65;;;;;;;3.92;78.37;96353.33;1719996;83;20971;-63
2022/02/17 02:54:47;;;;;;;17.52;12.68;;;;;;;3.93;78.38;96349.59;1720004;83;20987;-68
2022/02/17 02:57:13;;;;;;;17.87;11.35;;;;;;;3.93;78.45;96349.59;1719991;83;21117;-67
2022/02/17 02:59:42;;;;;;;14.58;10.70;;;;;;;3.93;78.44;96347.50;1720062;83;21431;-64
2022/02/17 03:02:11;;;;;;;17.85;11.08;;;;;;;3.92;78.38;96335.31;1719920;83;20891;-64
2022/02/17 03:04:38;;;;;;;25.65;18.10;;;;;;;3.91;78.38;96329.23;1719953;83;20908;-62
2022/02/17 03:07:09;;;;;;;14.93;11.15;;;;;;;3.90;78.39;96327.67;1719092;83;20979;-67
2022/02/17 03:09:37;;;;;;;15.45;10.43;;;;;;;3.89;78.37;96330.05;1729178;82;21735;-67
2022/02/17 03:12:06;;;;;;;16.20;11.48;;;;;;;3.90;78.40;96314.42;1735772;82;20899;-67
2022/02/17 03:14:33;;;;;;;14.18;9.70;;;;;;;3.91;78.37;96303.30;1735733;82;20923;-64
2022/02/17 03:17:00;;;;;;;14.60;10.50;;;;;;;3.92;78.25;96304.32;1700804;84;20975;-63
2022/02/17 03:19:27;;;;;;;15.75;10.25;;;;;;;3.93;78.21;96283.36;1701436;84;21558;-63
2022/02/17 03:21:53;;;;;;;13.83;10.90;;;;;;;3.95;78.15;96277.27;1700743;84;21066;-63
2022/02/17 03:24:20;;;;;;;12.75;10.38;;;;;;;3.93;78.02;96266.14;1701444;84;20951;-67
2022/02/17 03:26:48;;;;;;;14.65;9.95;;;;;;;3.94;77.97;96258.46;1701387;84;21490;-64
2022/02/17 03:29:14;;;;;;;14.68;10.18;;;;;;;3.96;77.94;96232.46;1699632;84;21496;-64
2022/02/17 03:31:43;;;;;;;13.50;9.53;;;;;;;3.98;77.77;96224.24;1730371;83;20890;-66
2022/02/17 03:34:10;;;;;;;27.27;17.95;;;;;;;4.00;77.62;96224.17;1730930;83;21090;-67
2022/02/17 03:36:37;;;;;;;18.05;11.90;;;;;;;4.02;77.53;96231.85;1690200;85;21599;-64
2022/02/17 03:39:04;;;;;;;16.20;11.03;;;;;;;4.04;77.51;96215.13;1730588;83;20875;-63
2022/02/17 03:41:49;;;;;;;17.00;11.65;;;;;;;4.05;77.34;96204.22;1690714;85;21524;-67
2022/02/17 03:44:17;;;;;;;17.90;10.28;;;;;;;4.05;77.27;96205.55;1730846;83;20982;-67
2022/02/17 03:46:44;;;;;;;16.50;10.55;;;;;;;4.06;77.16;96199.19;1690393;85;21119;-64
2022/02/17 03:49:12;;;;;;;15.58;10.65;;;;;;;4.09;77.11;96201.26;1730515;83;20832;-64
2022/02/17 03:51:39;;;;;;;14.45;10.68;;;;;;;4.10;77.01;96202.81;1730482;83;20919;-65
2022/02/17 03:54:06;;;;;;;15.90;10.53;;;;;;;4.15;76.83;96190.80;1690363;85;20881;-65
2022/02/17 03:56:33;;;;;;;15.90;11.85;;;;;;;4.18;76.84;96182.02;1730579;83;20888;-64
2022/02/17 03:59:08;;;;;;;15.95;11.33;;;;;;;4.18;76.64;96182.81;1687507;85;21146;-64
2022/02/17 04:01:38;;;;;;;18.25;11.85;;;;;;;4.17;76.53;96179.14;1730376;82;21034;-66
2022/02/17 04:04:09;;;;;;;15.58;11.50;;;;;;;4.14;76.59;96165.38;1690642;85;20870;-68
2022/02/17 04:06:37;;;;;;;48.20;27.80;;;;;;;4.14;76.60;96161.96;1730716;83;21014;-69
2022/02/17 04:09:06;;;;;;;33.05;20.45;;;;;;;4.12;76.69;96165.45;1692208;84;20884;-67
2022/02/17 04:11:33;;;;;;;15.90;12.68;;;;;;;4.10;76.71;96144.52;1736044;82;21098;-64
2022/02/17 04:14:01;;;;;;;18.10;12.95;;;;;;;4.09;76.79;96139.00;1736111;82;20981;-64
2022/02/17 04:16:29;;;;;;;17.77;12.20;;;;;;;4.08;76.79;96130.79;1733037;82;20994;-67
2022/02/17 04:19:15;;;;;;;19.70;13.75;;;;;;;4.07;76.85;96135.06;1698227;84;20924;-69
2022/02/17 04:21:59;;;;;;;15.78;11.38;;;;;;;4.06;76.90;96125.53;1735089;82;20891;-64
2022/02/17 04:24:33;;;;;;;16.27;10.75;;;;;;;4.07;76.88;96119.94;1728632;82;21156;-65
2022/02/17 04:27:01;;;;;;;14.25;11.22;;;;;;;4.10;76.85;96108.75;1736103;82;20930;-67
2022/02/17 04:29:33;;;;;;;12.78;10.25;;;;;;;4.14;76.71;96105.75;1735237;82;21264;-67
2022/02/17 04:32:01;;;;;;;18.27;12.18;;;;;;;4.18;76.55;96105.17;1736276;82;20938;-65
2022/02/17 04:34:28;;;;;;;16.50;10.63;;;;;;;4.19;76.40;96106.23;1736048;82;20994;-64
2022/02/17 04:36:57;;;;;;;17.23;11.08;;;;;;;4.23;76.25;96103.75;1734660;82;21112;-63
2022/02/17 04:39:24;;;;;;;22.05;13.78;;;;;;;4.24;76.14;96098.15;1735983;82;20899;-62
2022/02/17 04:42:34;;;;;;;18.95;13.48;;;;;;;4.25;76.06;96077.74;1736020;82;21291;-63
2022/02/17 04:44:25;;;;;;;22.00;12.63;;;;;;;4.26;75.92;96075.34;1724807;82;20907;-63
2022/02/17 04:46:52;;;;;;;30.08;16.10;;;;;;;4.30;75.87;96080.30;1736305;82;20919;-63
2022/02/17 04:49:19;;;;;;;17.10;11.83;;;;;;;4.34;75.73;96063.50;1736195;82;21101;-66
2022/02/17 04:51:46;;;;;;;18.55;11.12;;;;;;;4.39;75.50;96073.21;1735983;82;20875;-66
2022/02/17 04:54:18;;;;;;;14.15;9.85;;;;;;;4.45;75.20;96072.80;1698022;84;20999;-62
2022/02/17 04:56:46;;;;;;;14.60;9.33;;;;;;;4.51;74.94;96062.35;1736134;82;20906;-66
2022/02/17 04:59:13;;;;;;;13.62;7.80;;;;;;;4.57;74.60;96068.34;1736486;82;20891;-63
2022/02/17 05:01:41;;;;;;;18.27;11.08;;;;;;;4.62;74.32;96057.60;1734845;82;21137;-62
2022/02/17 05:04:26;;;;;;;14.80;9.43;;;;;;;4.66;74.22;96047.98;1736271;82;21291;-61
2022/02/17 05:06:56;;;;;;;14.58;9.48;;;;;;;4.67;74.06;96034.95;1735675;82;20836;-67
2022/02/17 05:09:24;;;;;;;13.25;9.05;;;;;;;4.68;74.01;96036.53;1706816;83;20971;-63
2022/02/17 05:11:53;;;;;;;15.68;9.90;;;;;;;4.66;73.75;96025.45;1671753;85;20920;-62
2022/02/17 05:14:26;;;;;;;16.00;9.78;;;;;;;4.67;73.78;96032.30;1700589;84;21141;-66
2022/02/17 05:16:53;;;;;;;10.65;8.35;;;;;;;4.65;73.79;96022.00;1701218;84;20920;-65
2022/02/17 05:19:22;;;;;;;17.50;9.50;;;;;;;4.62;73.79;96016.50;1701246;84;20919;-66
2022/02/17 05:21:51;;;;;;;14.43;8.78;;;;;;;4.62;73.88;96015.17;1681088;84;21102;-64
2022/02/17 05:24:37;;;;;;;17.12;10.15;;;;;;;4.61;73.80;96014.41;1701495;84;20916;-65
2022/02/17 05:27:23;;;;;;;14.65;9.73;;;;;;;4.60;73.80;96008.06;1645810;87;21135;-68
2022/02/17 05:29:51;;;;;;;13.45;9.18;;;;;;;4.59;73.79;95989.28;1645280;87;20952;-68
2022/02/17 05:32:41;;;;;;;14.50;9.85;;;;;;;4.57;73.71;95992.21;1673565;83;21491;-66
2022/02/17 05:35:25;;;;;;;13.45;8.95;;;;;;;4.57;73.70;95984.83;1700934;84;20995;-66
2022/02/17 05:37:59;;;;;;;12.03;8.03;;;;;;;4.58;73.74;95972.58;1682276;84;21520;-63
2022/02/17 05:40:28;;;;;;;11.68;8.23;;;;;;;4.60;73.68;95980.22;1698892;84;21129;-62
2022/02/17 05:42:55;;;;;;;11.20;8.08;;;;;;;4.62;73.57;95985.47;1701340;84;20948;-65
2022/02/17 05:45:22;;;;;;;12.28;8.35;;;;;;;4.65;73.59;95978.78;1701411;84;21015;-65
2022/02/17 05:47:50;;;;;;;12.82;9.95;;;;;;;4.68;73.49;95979.52;1701657;84;21460;-66
2022/02/17 05:50:17;;;;;;;14.20;9.00;;;;;;;4.70;73.37;95961.44;1701484;84;21007;-67
2022/02/17 05:52:43;;;;;;;11.43;8.53;;;;;;;4.71;73.19;95951.84;1701548;84;21769;-67
2022/02/17 05:55:10;;;;;;;11.35;8.43;;;;;;;4.73;73.17;95936.97;1701726;84;20960;-66
2022/02/17 05:57:38;;;;;;;14.33;9.05;;;;;;;4.76;73.01;95959.68;1701319;84;21018;-66
2022/02/17 06:00:07;;;;;;;14.80;11.93;;;;;;;4.77;73.09;95946.67;1701438;84;20892;-66
2022/02/17 06:02:35;;;;;;;12.53;9.78;;;;;;;4.81;72.92;95951.61;1701285;84;20904;-65
2022/02/17 06:05:03;;;;;;;12.35;9.25;;;;;;;4.83;72.76;95940.69;1701455;84;21106;-65
2022/02/17 06:07:30;;;;;;;15.78;10.28;;;;;;;4.85;72.66;95959.76;1701555;84;20959;-64
2022/02/17 06:09:57;;;;;;;13.15;10.03;;;;;;;4.86;72.66;95957.33;1701374;84;21518;-66
2022/02/17 06:12:24;;;;;;;17.67;9.48;;;;;;;4.90;72.56;95946.34;1701560;84;21392;-66
2022/02/17 06:14:51;;;;;;;15.38;11.35;;;;;;;4.94;72.42;95957.94;1701420;84;21034;-67
2022/02/17 06:17:20;;;;;;;13.03;8.73;;;;;;;4.98;72.31;95937.67;1701231;84;21503;-65
2022/02/17 06:19:48;;;;;;;13.98;9.85;;;;;;;5.00;72.14;95926.20;1701304;84;20998;-65
2022/02/17 06:22:14;;;;;;;14.60;9.00;;;;;;;5.00;72.19;95943.45;1701524;84;20951;-63
2022/02/17 06:24:41;;;;;;;10.32;8.05;;;;;;;5.00;72.03;95926.20;1701342;84;21011;-66
2022/02/17 06:27:08;;;;;;;12.10;7.85;;;;;;;4.98;71.90;95916.44;1701370;84;21042;-64
2022/02/17 06:29:34;;;;;;;10.90;7.65;;;;;;;4.97;72.04;95926.80;1701355;84;21127;-62
2022/02/17 06:32:01;;;;;;;12.07;8.10;;;;;;;4.95;71.91;95915.72;1701403;84;20967;-66
2022/02/17 06:34:28;;;;;;;15.93;7.85;;;;;;;4.97;72.05;95907.47;1701359;84;21066;-64
2022/02/17 06:36:54;;;;;;;12.03;7.92;;;;;;;4.97;72.03;95896.86;1701389;84;20935;-65
2022/02/17 06:39:21;;;;;;;12.55;8.10;;;;;;;4.95;72.03;95886.53;1701456;84;21542;-62
2022/02/17 06:41:48;;;;;;;10.03;7.65;;;;;;;4.95;72.17;95877.25;1701227;84;22237;-65
2022/02/17 06:44:15;;;;;;;9.23;7.78;;;;;;;4.95;72.24;95863.98;1701729;84;20939;-62
2022/02/17 06:46:42;;;;;;;13.03;8.20;;;;;;;4.93;72.33;95864.05;1701728;84;21563;-66
2022/02/17 06:49:09;;;;;;;10.60;7.80;;;;;;;4.93;72.46;95847.59;1701515;84;21014;-65
2022/02/17 06:51:36;;;;;;;8.93;6.85;;;;;;;4.92;72.62;95851.35;1701925;84;20888;-64
2022/02/17 06:54:03;;;;;;;22.17;12.63;;;;;;;4.95;72.69;95852.05;1701885;84;21838;-66
2022/02/17 06:56:30;;;;;;;11.60;8.25;;;;;;;4.98;72.58;95854.09;1701878;84;20928;-63
2022/02/17 06:58:57;;;;;;;12.07;7.75;;;;;;;5.03;72.48;95856.62;1701210;84;21564;-62
2022/02/17 07:01:25;;;;;;;13.38;10.13;;;;;;;5.07;72.44;95849.60;1701445;84;20888;-63
2022/02/17 07:03:52;;;;;;;9.00;7.37;;;;;;;5.09;72.55;95836.02;1701295;84;21000;-64
2022/02/17 07:06:19;;;;;;;8.75;6.97;;;;;;;5.10;72.36;95833.08;1701202;84;21101;-65
2022/02/17 07:08:45;;;;;;;11.48;7.67;;;;;;;5.12;72.21;95834.88;1701262;84;20941;-63
2022/02/17 07:11:13;;;;;;;10.40;7.05;;;;;;;5.14;72.16;95832.69;1689895;82;20964;-66
2022/02/17 07:13:42;;;;;;;10.40;6.30;;;;;;;5.17;72.10;95829.97;1684629;85;21463;-67
2022/02/17 07:16:09;;;;;;;16.12;11.63;;;;;;;5.21;72.25;95839.66;1684295;85;21079;-62
2022/02/17 07:18:37;;;;;;;9.78;8.20;;;;;;;5.24;72.54;95826.33;1720486;83;40189;-62
2022/02/17 07:21:06;;;;;;;72.00;24.77;;;;;;;5.23;72.76;95796.34;1669087;83;21472;-63
2022/02/17 07:23:33;;;;;;;28.50;12.33;;;;;;;5.24;72.84;95819.69;1707996;82;20892;-63
2022/02/17 07:26:00;;;;;;;11.05;7.40;;;;;;;5.24;72.68;95821.80;1725523;82;20940;-64
2022/02/17 07:28:27;;;;;;;15.83;8.10;;;;;;;5.26;72.66;95798.39;1733616;82;21475;-63
2022/02/17 07:30:54;;;;;;;13.60;7.92;;;;;;;5.30;72.84;95807.29;1733721;82;21168;-61
2022/02/17 07:33:22;;;;;;;12.47;6.40;;;;;;;5.36;72.98;95799.97;1733395;82;20944;-60
2022/02/17 07:35:48;;;;;;;31.77;13.00;;;;;;;5.37;73.04;95777.09;1733468;82;20913;-63
2022/02/17 07:38:15;;;;;;;23.65;9.75;;;;;;;5.38;73.71;95776.01;1733559;82;20933;-63
2022/02/17 07:40:43;;;;;;;14.13;7.03;;;;;;;5.38;74.07;95774.68;1733561;82;21317;-61
2022/02/17 07:43:11;;;;;;;25.62;11.80;;;;;;;5.38;74.50;95761.41;1733923;82;21105;-62
2022/02/17 07:45:38;;;;;;;36.25;14.07;;;;;;;5.39;74.92;95772.81;1733850;82;20973;-62
2022/02/17 07:48:06;;;;;;;21.40;12.85;;;;;;;5.41;74.85;95769.30;1733637;82;20925;-62
2022/02/17 07:50:33;;;;;;;33.28;16.75;;;;;;;5.44;75.01;95765.47;1719068;82;21405;-64
2022/02/17 07:53:01;;;;;;;14.00;7.72;;;;;;;5.51;75.18;95771.09;1724169;82;20937;-64
2022/02/17 07:55:29;;;;;;;18.32;10.25;;;;;;;5.54;74.71;95770.48;1733903;82;21075;-63
2022/02/17 07:58:01;;;;;;;16.15;10.32;;;;;;;5.60;74.81;95754.40;1733577;82;20873;-65
2022/02/17 08:00:30;;;;;;;18.20;9.23;;;;;;;5.62;74.95;95764.95;1733855;82;20963;-65
2022/02/17 08:02:58;;;;;;;34.35;19.27;;;;;;;5.62;74.88;95754.86;1733466;82;20944;-69
2022/02/17 08:05:26;;;;;;;12.98;6.80;;;;;;;5.64;74.97;95759.31;1733499;82;20846;-67
2022/02/17 08:07:52;;;;;;;14.10;9.50;;;;;;;5.67;74.87;95742.77;1733552;82;21738;-66
2022/02/17 08:10:23;;;;;;;9.20;5.92;;;;;;;5.72;74.75;95752.70;1733278;82;21448;-65
2022/02/17 08:12:50;;;;;;;12.23;7.92;;;;;;;5.78;74.60;95742.67;1733535;82;20976;-66
2022/02/17 08:15:17;;;;;;;11.05;8.40;;;;;;;5.82;74.54;95740.41;1733483;82;21471;-67
2022/02/17 08:17:45;;;;;;;10.08;5.20;;;;;;;5.83;74.62;95734.55;1733376;82;20921;-67
2022/02/17 08:20:12;;;;;;;8.78;5.47;;;;;;;5.82;74.66;95735.63;1733443;82;22328;-67
2022/02/17 08:22:53;;;;;;;7.40;5.30;;;;;;;5.83;74.66;95727.37;1733428;82;20949;-66
2022/02/17 08:25:20;;;;;;;9.13;4.78;;;;;;;5.84;74.88;95693.08;1733523;82;21495;-65
2022/02/17 08:27:49;;;;;;;6.20;4.40;;;;;;;5.85;75.01;95707.15;1733369;81;20983;-62
2022/02/17 08:30:18;;;;;;;7.62;4.35;;;;;;;5.87;75.23;95681.83;1733857;82;20850;-61
2022/02/17 08:32:46;;;;;;;5.58;4.60;;;;;;;5.90;75.39;95670.58;1716766;82;21329;-63
2022/02/17 08:35:13;;;;;;;7.28;4.50;;;;;;;5.94;75.42;95660.09;1687418;85;20921;-63
2022/02/17 08:37:42;;;;;;;8.23;5.58;;;;;;;5.99;75.38;95649.30;1732788;82;20889;-62
2022/02/17 08:40:11;;;;;;;7.80;5.42;;;;;;;6.06;75.39;95656.23;1733904;82;20940;-65
2022/02/17 08:42:38;;;;;;;6.20;4.50;;;;;;;6.13;75.40;95644.56;1738708;82;21015;-66
2022/02/17 08:45:07;;;;;;;4.80;4.03;;;;;;;6.20;75.32;95647.51;1748939;82;20993;-65
2022/02/17 08:47:37;;;;;;;5.85;4.35;;;;;;;6.22;75.16;95650.63;1710588;83;21005;-63
2022/02/17 08:50:08;;;;;;;6.03;4.17;;;;;;;6.21;75.09;95629.14;1733420;82;21038;-64
2022/02/17 08:52:38;;;;;;;5.22;4.08;;;;;;;6.22;75.02;95643.98;1733433;82;21033;-66
2022/02/17 08:55:07;;;;;;;6.65;3.72;;;;;;;6.27;75.08;95623.87;1684631;84;20984;-62
2022/02/17 08:57:33;;;;;;;5.53;3.90;;;;;;;6.39;74.62;95629.30;1725908;82;21059;-66
2022/02/17 09:00:01;;;;;;;7.62;4.22;;;;;;;6.58;74.07;95636.32;1711302;83;21458;-65
2022/02/17 09:02:28;;;;;;;8.40;4.17;;;;;;;6.76;73.55;95644.43;1721459;82;21044;-67
2022/02/17 09:04:54;;;;;;;9.58;4.08;;;;;;;6.92;73.03;95627.38;1714228;82;20897;-63
2022/02/17 09:07:22;;;;;;;5.67;4.17;;;;;;;7.04;72.48;95618.67;1743208;82;21498;-63
2022/02/17 09:09:49;;;;;;;6.67;5.33;;;;;;;7.16;72.04;95624.07;1711079;83;21956;-67
2022/02/17 09:12:16;;;;;;;6.30;4.35;;;;;;;7.29;71.80;95623.80;1737508;82;20977;-66
2022/02/17 09:14:45;;;;;;;5.37;4.10;;;;;;;7.42;71.20;95601.98;1737418;81;20882;-64
2022/02/17 09:17:12;;;;;;;8.20;4.90;;;;;;;7.54;70.98;95603.36;1740408;81;20939;-66
2022/02/17 09:19:39;;;;;;;4.92;3.80;;;;;;;7.66;70.81;95592.75;1741520;81;20937;-62
2022/02/17 09:22:06;;;;;;;5.87;4.35;;;;;;;7.77;70.15;95585.92;1737334;82;21057;-63
2022/02/17 09:24:33;;;;;;;5.85;2.62;;;;;;;7.92;70.13;95582.60;1732933;82;21114;-62
2022/02/17 09:27:01;;;;;;;4.17;2.33;;;;;;;8.06;69.07;95603.61;1738695;81;20929;-64
2022/02/17 09:29:28;;;;;;;3.72;2.58;;;;;;;8.16;69.12;95554.64;1737772;82;21174;-67
2022/02/17 09:31:55;;;;;;;2.40;1.90;;;;;;;8.30;68.97;95568.22;1735894;82;21621;-66
2022/02/17 09:34:22;;;;;;;1.95;1.30;;;;;;;8.44;68.23;95575.33;1736141;82;21109;-69
2022/02/17 09:36:49;;;;;;;2.75;1.00;;;;;;;8.51;66.83;95574.22;1736058;81;21024;-65
2022/02/17 09:39:16;;;;;;;1.35;0.85;;;;;;;8.61;66.57;95559.09;1735980;82;21008;-64
2022/02/17 09:41:43;;;;;;;0.62;0.50;;;;;;;8.72;65.52;95547.63;1736702;82;21594;-68
2022/02/17 09:44:10;;;;;;;1.22;0.50;;;;;;;8.82;64.68;95535.70;1708815;82;21075;-62
2022/02/17 09:46:45;;;;;;;1.20;0.50;;;;;;;8.88;64.15;95533.02;1737534;82;21089;-65
2022/02/17 09:49:10;;;;;;;0.82;0.50;;;;;;;8.85;64.14;95527.82;1737623;82;20976;-63
2022/02/17 09:51:37;;;;;;;0.50;0.50;;;;;;;8.78;63.78;95526.83;1737379;82;20921;-69
2022/02/17 09:54:04;;;;;;;2.37;0.42;;;;;;;8.76;63.70;95515.14;1737520;82;20901;-63
2022/02/17 09:56:31;;;;;;;0.60;0.50;;;;;;;8.82;63.43;95506.34;1737623;82;20936;-62
2022/02/17 09:58:57;;;;;;;3.92;0.70;;;;;;;8.85;63.29;95501.67;1737552;82;21582;-64
2022/02/17 10:01:28;;;;;;;1.10;0.60;;;;;;;8.82;63.27;95495.13;1737399;82;20901;-64
2022/02/17 10:04:14;;;;;;;0.78;0.60;;;;;;;8.82;63.18;95491.67;1737796;82;20854;-65
2022/02/17 10:06:53;;;;;;;0.60;0.40;;;;;;;8.80;63.27;95488.56;1737963;82;20976;-66
2022/02/17 10:09:21;;;;;;;1.35;0.50;;;;;;;8.80;63.14;95497.91;1738231;82;20988;-64
2022/02/17 10:11:51;;;;;;;1.82;1.50;;;;;;;8.77;62.79;95461.20;1734816;82;21108;-67
2022/02/17 10:14:19;;;;;;;1.82;1.27;;;;;;;8.73;62.70;95477.14;1732317;82;21067;-61
2022/02/17 10:17:06;;;;;;;1.85;1.10;;;;;;;8.72;62.94;95457.44;1731908;83;21425;-63
2022/02/17 10:19:47;;;;;;;2.37;0.90;;;;;;;8.71;62.62;95468.70;1732032;83;21455;-62
2022/02/17 10:22:19;;;;;;;1.55;1.20;;;;;;;8.68;62.37;95460.02;1731151;82;20953;-61
2022/02/17 10:24:52;;;;;;;1.70;1.40;;;;;;;8.64;62.29;95457.82;1731035;82;21074;-62
2022/02/17 10:27:22;;;;;;;3.60;1.40;;;;;;;8.59;62.19;95455.94;1728785;83;21563;-62
2022/02/17 10:30:09;;;;;;;1999.90;999.90;;;;;;;8.50;63.95;95456.63;1731096;82;21566;-62
2022/02/17 10:32:39;;;;;;;1.27;0.90;;;;;;;8.37;65.31;95460.42;1707312;82;21059;-66
2022/02/17 10:35:09;;;;;;;1.10;0.70;;;;;;;8.20;66.97;95439.53;1672530;84;21063;-62
2022/02/17 10:37:48;;;;;;;1.17;0.80;;;;;;;8.11;67.24;95426.89;1703440;84;21504;-60
2022/02/17 10:40:23;;;;;;;3.05;0.40;;;;;;;8.08;66.99;95424.88;1707063;82;21067;-65
2022/02/17 10:43:09;;;;;;;0.75;0.60;;;;;;;8.05;66.90;95401.58;1704132;84;21488;-61
2022/02/17 10:45:37;;;;;;;1.22;0.70;;;;;;;8.03;67.11;95381.70;1726460;82;20983;-62
2022/02/17 10:48:16;;;;;;;1.00;0.80;;;;;;;7.97;67.70;95386.48;1732884;82;21040;-64
2022/02/17 10:51:04;;;;;;;1.20;0.80;;;;;;;7.92;68.50;95385.37;1721233;82;21106;-64
2022/02/17 10:53:31;;;;;;;1.72;1.02;;;;;;;7.80;69.47;95362.73;1732582;82;20905;-64
2022/02/17 10:56:03;;;;;;;2.25;1.20;;;;;;;7.72;69.97;95352.20;1732025;82;21486;-60
2022/02/17 10:58:34;;;;;;;2.72;1.30;;;;;;;7.66;70.44;95364.17;1732149;82;21067;-64
2022/02/17 11:01:03;;;;;;;2.92;1.27;;;;;;;7.63;70.76;95366.95;1732281;82;21115;-62
2022/02/17 11:03:33;;;;;;;3.58;1.27;;;;;;;7.63;70.91;95372.28;1732087;82;21027;-64
2022/02/17 11:06:00;;;;;;;2.83;1.32;;;;;;;7.63;71.18;95370.95;1731760;82;21113;-63
2022/02/17 11:08:28;;;;;;;3.37;1.57;;;;;;;7.64;71.31;95377.84;1732118;82;21623;-62
2022/02/17 11:10:56;;;;;;;4.15;1.80;;;;;;;7.64;71.39;95385.84;1732399;82;21055;-62
2022/02/17 11:13:25;;;;;;;2.10;1.30;;;;;;;7.61;71.36;95390.48;1738389;82;21472;-63
2022/02/17 11:15:54;;;;;;;5.80;1.80;;;;;;;7.57;71.59;95404.26;1739224;82;21665;-62
2022/02/17 11:18:22;;;;;;;1.60;1.30;;;;;;;7.54;72.22;95426.22;1738781;81;20897;-66
2022/02/17 11:20:51;;;;;;;1.47;0.90;;;;;;;7.50;73.06;95412.81;1738952;82;20979;-65
2022/02/17 11:23:20;;;;;;;1.70;1.02;;;;;;;7.48;73.01;95419.58;1738930;82;20900;-62
2022/02/17 11:25:48;;;;;;;1.42;1.10;;;;;;;7.47;73.35;95426.00;1738960;82;20881;-63
2022/02/17 11:28:16;;;;;;;2.35;1.00;;;;;;;7.44;74.02;95439.42;1738882;82;21263;-63
2022/02/17 11:31:04;;;;;;;1.67;1.20;;;;;;;7.43;73.96;95435.77;1739151;82;20916;-63
2022/02/17 11:33:37;;;;;;;1.57;1.10;;;;;;;7.44;74.40;95438.66;1738449;82;21448;-65
2022/02/17 11:36:25;;;;;;;0.72;0.60;;;;;;;7.45;74.58;95466.84;1737708;82;21420;-64
2022/02/17 11:38:55;;;;;;;0.60;0.55;;;;;;;7.46;74.45;95465.20;1727213;82;20983;-62